createdAt,value
2018-09-24T01:31:22.383Z,0.00
2018-09-24T01:31:22.954Z,0.00
2018-09-24T01:31:23.554Z,0.00
2018-09-24T01:31:24.153Z,0.00
2018-09-24T01:31:24.752Z,0.00
2018-09-24T01:31:25.355Z,0.00
2018-09-24T01:31:25.951Z,0.00
2018-09-24T01:31:26.551Z,0.00
2018-09-24T01:32:20.010Z,0.00
2018-09-24T01:32:20.607Z,0.00
2018-09-24T01:32:21.209Z,0.00
2018-09-24T01:32:21.807Z,0.00
2018-09-24T01:32:22.406Z,0.00
2018-09-24T01:32:23.005Z,0.00
2018-09-24T01:32:23.605Z,0.00
2018-09-24T01:32:24.207Z,0.00
2018-09-24T01:33:18.720Z,0.00
2018-09-24T01:33:19.283Z,0.00
2018-09-24T01:33:19.882Z,0.00
2018-09-24T01:33:20.484Z,0.00
2018-09-24T01:33:21.080Z,0.00
2018-09-24T01:33:21.681Z,0.00
2018-09-24T01:33:22.280Z,0.00
2018-09-24T01:33:22.882Z,0.00
2018-09-24T01:34:17.361Z,0.00
2018-09-24T01:34:17.959Z,0.00
2018-09-24T01:34:18.557Z,0.00
2018-09-24T01:34:19.159Z,0.00
2018-09-24T01:34:19.758Z,0.00
2018-09-24T01:34:20.359Z,0.00
2018-09-24T01:34:20.959Z,0.00
2018-09-24T01:34:21.558Z,0.00
2018-09-24T01:35:15.015Z,0.00
2018-09-24T01:35:15.612Z,0.00
2018-09-24T01:35:16.213Z,0.00
2018-09-24T01:35:16.812Z,0.00
2018-09-24T01:35:17.412Z,0.00
2018-09-24T01:35:18.015Z,0.00
2018-09-24T01:35:18.612Z,0.00
2018-09-24T01:35:19.210Z,0.00
2018-09-24T01:36:13.689Z,0.00
2018-09-24T01:36:14.288Z,0.00
2018-09-24T01:36:14.887Z,0.00
2018-09-24T01:36:15.487Z,0.00
2018-09-24T01:36:16.086Z,0.00
2018-09-24T01:36:16.690Z,0.00
2018-09-24T01:36:17.288Z,0.00
2018-09-24T01:36:17.886Z,0.00
2018-09-24T01:37:12.366Z,0.67
2018-09-24T01:37:12.969Z,0.85
2018-09-24T01:37:13.565Z,0.95
2018-09-24T01:37:14.163Z,0.85
2018-09-24T01:37:14.763Z,1.04
2018-09-24T01:37:15.364Z,1.14
2018-09-24T01:37:15.963Z,1.23
2018-09-24T01:37:16.562Z,1.42
2018-09-24T01:38:10.020Z,2.95
2018-09-24T01:38:10.616Z,2.85
2018-09-24T01:38:11.215Z,2.76
2018-09-24T01:38:11.819Z,3.14
2018-09-24T01:38:12.417Z,3.14
2018-09-24T01:38:13.018Z,3.05
2018-09-24T01:38:13.615Z,3.33
2018-09-24T01:38:14.215Z,3.14
2018-09-24T01:39:07.696Z,5.23
2018-09-24T01:39:08.268Z,5.33
2018-09-24T01:39:08.868Z,5.42
2018-09-24T01:39:09.468Z,5.33
2018-09-24T01:39:10.067Z,5.14
2018-09-24T01:39:10.675Z,5.04
2018-09-24T01:39:11.268Z,4.85
2018-09-24T01:39:11.868Z,5.14
2018-09-24T01:40:05.322Z,3.80
2018-09-24T01:40:05.919Z,3.80
2018-09-24T01:40:06.521Z,3.99
2018-09-24T01:40:07.119Z,3.71
2018-09-24T01:40:07.720Z,3.42
2018-09-24T01:40:08.320Z,3.33
2018-09-24T01:40:08.920Z,3.42
2018-09-24T01:40:09.522Z,3.33
2018-09-24T01:41:03.999Z,2.47
2018-09-24T01:41:04.600Z,2.09
2018-09-24T01:41:05.196Z,2.00
2018-09-24T01:41:05.799Z,2.09
2018-09-24T01:41:06.397Z,2.00
2018-09-24T01:41:06.996Z,2.00
2018-09-24T01:41:07.594Z,2.09
2018-09-24T01:41:08.194Z,2.09
2018-09-24T01:42:02.671Z,3.14
2018-09-24T01:42:03.270Z,2.76
2018-09-24T01:42:03.871Z,3.14
2018-09-24T01:42:04.470Z,3.14
2018-09-24T01:42:05.076Z,3.33
2018-09-24T01:42:05.674Z,3.14
2018-09-24T01:42:06.269Z,3.05
2018-09-24T01:42:06.869Z,2.95
2018-09-24T01:43:00.327Z,2.66
2018-09-24T01:43:00.923Z,2.66
2018-09-24T01:43:01.529Z,2.47
2018-09-24T01:43:02.122Z,2.47
2018-09-24T01:43:02.723Z,2.57
2018-09-24T01:43:03.324Z,2.57
2018-09-24T01:43:03.926Z,2.57
2018-09-24T01:43:04.525Z,2.76
2018-09-24T01:43:58.003Z,2.00
2018-09-24T01:43:58.575Z,1.52
2018-09-24T01:43:59.175Z,1.62
2018-09-24T01:43:59.774Z,1.52
2018-09-24T01:44:00.374Z,1.71
2018-09-24T01:44:00.976Z,1.52
2018-09-24T01:44:01.578Z,1.62
2018-09-24T01:44:02.172Z,1.62
2018-09-24T01:44:56.653Z,0.28
2018-09-24T01:44:57.250Z,0.28
2018-09-24T01:44:57.852Z,0.28
2018-09-24T01:44:58.451Z,0.19
2018-09-24T01:44:59.051Z,0.00
2018-09-24T01:44:59.656Z,0.00
2018-09-24T01:45:00.249Z,0.00
2018-09-24T01:45:00.856Z,0.09
2018-09-24T01:45:55.329Z,1.04
2018-09-24T01:45:55.927Z,1.14
2018-09-24T01:45:56.525Z,1.23
2018-09-24T01:45:57.125Z,1.04
2018-09-24T01:45:57.726Z,1.33
2018-09-24T01:45:58.327Z,1.52
2018-09-24T01:45:58.925Z,1.14
2018-09-24T01:45:59.526Z,1.23
2018-09-24T01:46:52.982Z,1.81
2018-09-24T01:46:53.578Z,2.09
2018-09-24T01:46:54.188Z,1.71
2018-09-24T01:46:54.780Z,2.09
2018-09-24T01:46:55.377Z,2.09
2018-09-24T01:46:55.979Z,2.09
2018-09-24T01:46:56.582Z,2.09
2018-09-24T01:46:57.178Z,2.09
2018-09-24T01:47:51.656Z,0.95
2018-09-24T01:47:52.252Z,1.14
2018-09-24T01:47:52.853Z,1.14
2018-09-24T01:47:53.453Z,0.95
2018-09-24T01:47:54.053Z,0.85
2018-09-24T01:47:54.652Z,0.76
2018-09-24T01:47:55.253Z,1.14
2018-09-24T01:47:55.851Z,1.04
2018-09-24T01:48:49.333Z,0.00
2018-09-24T01:48:49.907Z,0.00
2018-09-24T01:48:50.505Z,0.00
2018-09-24T01:48:51.106Z,0.00
2018-09-24T01:48:51.706Z,0.00
2018-09-24T01:48:52.306Z,0.00
2018-09-24T01:48:52.904Z,0.00
2018-09-24T01:48:53.504Z,0.00
2018-09-24T01:49:46.961Z,0.00
2018-09-24T01:49:47.559Z,0.00
2018-09-24T01:49:48.163Z,0.00
2018-09-24T01:49:48.756Z,0.00
2018-09-24T01:49:49.356Z,0.00
2018-09-24T01:49:49.955Z,0.00
2018-09-24T01:49:50.554Z,0.00
2018-09-24T01:49:51.156Z,0.00
2018-09-24T01:50:44.611Z,0.00
2018-09-24T01:50:45.209Z,0.00
2018-09-24T01:50:45.810Z,0.00
2018-09-24T01:50:46.410Z,0.00
2018-09-24T01:50:47.009Z,0.00
2018-09-24T01:50:47.609Z,0.00
2018-09-24T01:50:48.209Z,0.00
2018-09-24T01:50:48.808Z,0.00
2018-09-24T01:51:43.288Z,0.00
2018-09-24T01:51:43.885Z,0.00
2018-09-24T01:51:44.483Z,0.00
2018-09-24T01:51:45.084Z,0.00
2018-09-24T01:51:45.684Z,0.00
2018-09-24T01:51:46.284Z,0.00
2018-09-24T01:51:46.883Z,0.00
2018-09-24T01:51:47.483Z,0.00
2018-09-24T01:52:41.980Z,1.90
2018-09-24T01:52:42.560Z,1.90
2018-09-24T01:52:43.161Z,2.09
2018-09-24T01:52:43.761Z,2.09
2018-09-24T01:52:44.359Z,2.28
2018-09-24T01:52:44.961Z,1.90
2018-09-24T01:52:45.560Z,2.28
2018-09-24T01:52:46.160Z,2.19
2018-09-24T01:53:40.662Z,2.66
2018-09-24T01:53:41.237Z,2.95
2018-09-24T01:53:41.839Z,2.57
2018-09-24T01:53:42.436Z,2.85
2018-09-24T01:53:43.036Z,2.57
2018-09-24T01:53:43.636Z,2.57
2018-09-24T01:53:44.237Z,2.57
2018-09-24T01:53:44.838Z,2.47
2018-09-24T01:54:38.292Z,2.19
2018-09-24T01:54:38.888Z,2.19
2018-09-24T01:54:39.489Z,2.19
2018-09-24T01:54:40.088Z,2.19
2018-09-24T01:54:40.688Z,2.19
2018-09-24T01:54:41.291Z,2.19
2018-09-24T01:54:41.887Z,2.09
2018-09-24T01:54:42.488Z,2.09
2018-09-24T01:55:36.966Z,4.57
2018-09-24T01:55:37.569Z,4.66
2018-09-24T01:55:38.163Z,4.75
2018-09-24T01:55:38.764Z,4.66
2018-09-24T01:55:39.363Z,4.66
2018-09-24T01:55:39.964Z,4.66
2018-09-24T01:55:40.564Z,4.66
2018-09-24T01:55:41.161Z,4.66
2018-09-24T01:56:34.618Z,3.61
2018-09-24T01:56:35.217Z,3.80
2018-09-24T01:56:35.818Z,3.71
2018-09-24T01:56:36.416Z,3.80
2018-09-24T01:56:37.016Z,3.61
2018-09-24T01:56:37.615Z,3.80
2018-09-24T01:56:38.230Z,3.80
2018-09-24T01:56:38.815Z,3.80
2018-09-24T01:57:33.301Z,2.85
2018-09-24T01:57:33.890Z,2.76
2018-09-24T01:57:34.490Z,2.66
2018-09-24T01:57:35.091Z,2.76
2018-09-24T01:57:35.690Z,2.66
2018-09-24T01:57:36.296Z,2.76
2018-09-24T01:57:36.890Z,2.37
2018-09-24T01:57:37.490Z,2.37
2018-09-24T01:58:30.949Z,1.71
2018-09-24T01:58:31.546Z,2.00
2018-09-24T01:58:32.141Z,2.00
2018-09-24T01:58:32.740Z,1.81
2018-09-24T01:58:33.341Z,1.90
2018-09-24T01:58:33.941Z,1.90
2018-09-24T01:58:34.541Z,1.90
2018-09-24T01:58:35.140Z,2.09
2018-09-24T01:59:28.724Z,5.62
2018-09-24T01:59:29.299Z,5.62
2018-09-24T01:59:29.897Z,5.99
2018-09-24T01:59:30.497Z,6.09
2018-09-24T01:59:31.097Z,5.99
2018-09-24T01:59:31.698Z,6.09
2018-09-24T01:59:32.298Z,6.18
2018-09-24T01:59:32.898Z,6.18
2018-09-24T02:00:26.352Z,5.90
2018-09-24T02:00:26.952Z,5.62
2018-09-24T02:00:27.550Z,5.90
2018-09-24T02:00:28.150Z,5.90
2018-09-24T02:00:28.748Z,5.90
2018-09-24T02:00:29.350Z,5.62
2018-09-24T02:00:29.953Z,5.99
2018-09-24T02:00:30.550Z,5.99
2018-09-24T02:01:24.005Z,4.66
2018-09-24T02:01:24.601Z,4.47
2018-09-24T02:01:25.201Z,4.75
2018-09-24T02:01:25.801Z,5.04
2018-09-24T02:01:26.400Z,4.85
2018-09-24T02:01:27.004Z,5.04
2018-09-24T02:01:27.602Z,4.85
2018-09-24T02:01:28.201Z,4.85
2018-09-24T02:02:22.678Z,13.04
2018-09-24T02:02:23.274Z,13.04
2018-09-24T02:02:23.874Z,12.85
2018-09-24T02:02:24.475Z,12.94
2018-09-24T02:02:25.074Z,13.13
2018-09-24T02:02:25.675Z,13.13
2018-09-24T02:02:26.274Z,12.94
2018-09-24T02:02:26.875Z,13.04
2018-09-24T02:03:20.332Z,10.94
2018-09-24T02:03:20.928Z,11.04
2018-09-24T02:03:21.527Z,10.94
2018-09-24T02:03:22.136Z,11.23
2018-09-24T02:03:22.728Z,11.23
2018-09-24T02:03:23.329Z,11.04
2018-09-24T02:03:23.929Z,11.13
2018-09-24T02:03:24.528Z,10.75
2018-09-24T02:04:18.009Z,17.32
2018-09-24T02:04:18.580Z,18.18
2018-09-24T02:04:19.180Z,17.80
2018-09-24T02:04:19.779Z,18.08
2018-09-24T02:04:20.379Z,18.18
2018-09-24T02:04:20.979Z,18.18
2018-09-24T02:04:21.580Z,18.55
2018-09-24T02:04:22.180Z,18.84
2018-09-24T02:05:16.663Z,24.84
2018-09-24T02:05:17.260Z,25.12
2018-09-24T02:05:17.854Z,25.12
2018-09-24T02:05:18.454Z,25.60
2018-09-24T02:05:19.058Z,25.60
2018-09-24T02:05:19.654Z,25.70
2018-09-24T02:05:20.253Z,25.89
2018-09-24T02:05:20.852Z,26.26
2018-09-24T02:06:14.311Z,29.88
2018-09-24T02:06:14.907Z,30.09
2018-09-24T02:06:15.505Z,29.99
2018-09-24T02:06:16.107Z,30.57
2018-09-24T02:06:16.707Z,30.47
2018-09-24T02:06:17.307Z,30.37
2018-09-24T02:06:17.920Z,30.47
2018-09-24T02:06:18.508Z,30.28
2018-09-24T02:07:12.990Z,29.98
2018-09-24T02:07:13.582Z,29.90
2018-09-24T02:07:14.182Z,29.80
2018-09-24T02:07:14.781Z,29.88
2018-09-24T02:07:15.381Z,29.61
2018-09-24T02:07:15.983Z,29.71
2018-09-24T02:07:16.581Z,29.80
2018-09-24T02:07:17.182Z,29.69
2018-09-24T02:08:10.637Z,26.18
2018-09-24T02:08:11.235Z,26.47
2018-09-24T02:08:11.835Z,26.18
2018-09-24T02:08:12.433Z,25.90
2018-09-24T02:08:13.035Z,25.99
2018-09-24T02:08:13.634Z,26.18
2018-09-24T02:08:14.235Z,25.81
2018-09-24T02:08:14.834Z,25.61
2018-09-24T02:09:08.313Z,20.08
2018-09-24T02:09:08.887Z,20.00
2018-09-24T02:09:09.487Z,20.18
2018-09-24T02:09:10.087Z,20.09
2018-09-24T02:09:10.687Z,20.00
2018-09-24T02:09:11.286Z,20.47
2018-09-24T02:09:11.888Z,20.37
2018-09-24T02:09:12.486Z,20.47
2018-09-24T02:10:06.963Z,21.71
2018-09-24T02:10:07.562Z,21.23
2018-09-24T02:10:08.162Z,21.33
2018-09-24T02:10:08.760Z,21.23
2018-09-24T02:10:09.361Z,21.42
2018-09-24T02:10:09.962Z,21.42
2018-09-24T02:10:10.559Z,21.51
2018-09-24T02:10:11.161Z,21.23
2018-09-24T02:11:05.639Z,18.38
2018-09-24T02:11:06.238Z,18.18
2018-09-24T02:11:06.840Z,17.99
2018-09-24T02:11:07.437Z,17.99
2018-09-24T02:11:08.037Z,17.90
2018-09-24T02:11:08.638Z,17.99
2018-09-24T02:11:09.235Z,17.90
2018-09-24T02:11:09.835Z,17.90
2018-09-24T02:12:03.292Z,24.66
2018-09-24T02:12:03.890Z,25.13
2018-09-24T02:12:04.489Z,24.85
2018-09-24T02:12:05.089Z,24.95
2018-09-24T02:12:05.690Z,24.66
2018-09-24T02:12:06.291Z,24.85
2018-09-24T02:12:06.891Z,24.76
2018-09-24T02:12:07.489Z,24.76
2018-09-24T02:13:00.946Z,24.84
2018-09-24T02:13:01.543Z,24.95
2018-09-24T02:13:02.141Z,24.95
2018-09-24T02:13:02.740Z,24.66
2018-09-24T02:13:03.341Z,24.57
2018-09-24T02:13:03.940Z,24.66
2018-09-24T02:13:04.543Z,24.76
2018-09-24T02:13:05.139Z,24.55
2018-09-24T02:13:59.642Z,25.60
2018-09-24T02:14:00.215Z,25.60
2018-09-24T02:14:00.816Z,25.81
2018-09-24T02:14:01.418Z,25.61
2018-09-24T02:14:02.017Z,25.31
2018-09-24T02:14:02.614Z,25.51
2018-09-24T02:14:03.214Z,25.52
2018-09-24T02:14:03.816Z,25.22
2018-09-24T02:14:57.272Z,29.98
2018-09-24T02:14:57.868Z,29.90
2018-09-24T02:14:58.467Z,30.18
2018-09-24T02:14:59.069Z,30.17
2018-09-24T02:14:59.669Z,30.37
2018-09-24T02:15:00.269Z,29.88
2018-09-24T02:15:00.868Z,30.09
2018-09-24T02:15:01.468Z,29.80
2018-09-24T02:15:55.950Z,25.79
2018-09-24T02:15:56.542Z,26.18
2018-09-24T02:15:57.141Z,25.98
2018-09-24T02:15:57.741Z,25.90
2018-09-24T02:15:58.340Z,25.81
2018-09-24T02:15:58.941Z,26.09
2018-09-24T02:15:59.545Z,26.09
2018-09-24T02:16:00.140Z,26.09
2018-09-24T02:16:54.621Z,35.12
2018-09-24T02:16:55.219Z,35.02
2018-09-24T02:16:55.821Z,35.02
2018-09-24T02:16:56.419Z,35.12
2018-09-24T02:16:57.019Z,35.31
2018-09-24T02:16:57.620Z,35.02
2018-09-24T02:16:58.219Z,35.02
2018-09-24T02:16:58.818Z,34.83
2018-09-24T02:17:53.299Z,52.53
2018-09-24T02:17:53.895Z,52.25
2018-09-24T02:17:54.495Z,52.15
2018-09-24T02:17:55.094Z,52.44
2018-09-24T02:17:55.696Z,52.63
2018-09-24T02:17:56.295Z,52.72
2018-09-24T02:17:56.896Z,52.72
2018-09-24T02:17:57.494Z,52.82
2018-09-24T02:18:50.949Z,41.11
2018-09-24T02:18:51.547Z,41.30
2018-09-24T02:18:52.147Z,41.21
2018-09-24T02:18:52.747Z,41.02
2018-09-24T02:18:53.347Z,41.40
2018-09-24T02:18:53.949Z,41.02
2018-09-24T02:18:54.546Z,41.11
2018-09-24T02:18:55.146Z,41.11
2018-09-24T02:19:48.627Z,44.73
2018-09-24T02:19:49.198Z,44.64
2018-09-24T02:19:49.799Z,44.26
2018-09-24T02:19:50.400Z,44.06
2018-09-24T02:19:50.998Z,43.97
2018-09-24T02:19:51.597Z,43.97
2018-09-24T02:19:52.198Z,43.78
2018-09-24T02:19:52.797Z,43.49
2018-09-24T02:20:46.255Z,42.44
2018-09-24T02:20:46.850Z,42.73
2018-09-24T02:20:47.451Z,42.73
2018-09-24T02:20:48.050Z,42.83
2018-09-24T02:20:48.650Z,43.02
2018-09-24T02:20:49.253Z,43.21
2018-09-24T02:20:49.850Z,43.21
2018-09-24T02:20:50.450Z,43.30
2018-09-24T02:21:44.929Z,40.35
2018-09-24T02:21:45.525Z,40.06
2018-09-24T02:21:46.124Z,40.35
2018-09-24T02:21:46.725Z,39.97
2018-09-24T02:21:47.324Z,39.87
2018-09-24T02:21:47.928Z,40.26
2018-09-24T02:21:48.524Z,40.06
2018-09-24T02:21:49.125Z,40.06
2018-09-24T02:22:42.580Z,35.78
2018-09-24T02:22:43.177Z,35.88
2018-09-24T02:22:43.780Z,35.88
2018-09-24T02:22:44.377Z,35.60
2018-09-24T02:22:44.978Z,35.60
2018-09-24T02:22:45.578Z,35.60
2018-09-24T02:22:46.177Z,35.50
2018-09-24T02:22:46.775Z,35.60
2018-09-24T02:23:41.259Z,32.07
2018-09-24T02:23:41.853Z,31.98
2018-09-24T02:23:42.455Z,31.88
2018-09-24T02:23:43.050Z,32.07
2018-09-24T02:23:43.651Z,32.07
2018-09-24T02:23:44.250Z,32.17
2018-09-24T02:23:44.851Z,32.17
2018-09-24T02:23:45.450Z,32.17
2018-09-24T02:24:38.932Z,29.31
2018-09-24T02:24:39.505Z,29.79
2018-09-24T02:24:40.106Z,29.88
2018-09-24T02:24:40.704Z,30.26
2018-09-24T02:24:41.304Z,29.98
2018-09-24T02:24:41.904Z,30.55
2018-09-24T02:24:42.504Z,31.21
2018-09-24T02:24:43.107Z,31.60
2018-09-24T02:25:36.559Z,41.02
2018-09-24T02:25:37.156Z,40.92
2018-09-24T02:25:37.756Z,40.54
2018-09-24T02:25:38.356Z,40.64
2018-09-24T02:25:38.956Z,40.45
2018-09-24T02:25:39.557Z,40.45
2018-09-24T02:25:40.156Z,40.06
2018-09-24T02:25:40.756Z,40.45
2018-09-24T02:26:34.216Z,36.35
2018-09-24T02:26:34.808Z,36.45
2018-09-24T02:26:35.410Z,36.16
2018-09-24T02:26:36.007Z,36.16
2018-09-24T02:26:36.607Z,36.16
2018-09-24T02:26:37.208Z,36.45
2018-09-24T02:26:37.807Z,36.16
2018-09-24T02:26:38.408Z,36.26
2018-09-24T02:27:32.887Z,32.83
2018-09-24T02:27:33.483Z,32.64
2018-09-24T02:27:34.084Z,32.64
2018-09-24T02:27:34.682Z,32.64
2018-09-24T02:27:35.283Z,32.35
2018-09-24T02:27:35.884Z,32.45
2018-09-24T02:27:36.484Z,32.45
2018-09-24T02:27:37.082Z,32.64
2018-09-24T02:28:31.562Z,36.26
2018-09-24T02:28:32.159Z,36.45
2018-09-24T02:28:32.759Z,36.26
2018-09-24T02:28:33.358Z,36.55
2018-09-24T02:28:33.957Z,36.35
2018-09-24T02:28:34.559Z,36.35
2018-09-24T02:28:35.158Z,36.55
2018-09-24T02:28:35.759Z,36.55
2018-09-24T02:29:29.241Z,40.83
2018-09-24T02:29:29.811Z,41.11
2018-09-24T02:29:30.412Z,40.73
2018-09-24T02:29:31.014Z,41.11
2018-09-24T02:29:31.613Z,41.30
2018-09-24T02:29:32.211Z,41.02
2018-09-24T02:29:32.810Z,41.30
2018-09-24T02:29:33.411Z,41.30
2018-09-24T02:30:27.891Z,37.78
2018-09-24T02:30:28.490Z,37.78
2018-09-24T02:30:29.089Z,37.78
2018-09-24T02:30:29.686Z,37.40
2018-09-24T02:30:30.289Z,37.30
2018-09-24T02:30:30.885Z,37.02
2018-09-24T02:30:31.487Z,37.02
2018-09-24T02:30:32.090Z,36.64
2018-09-24T02:31:26.564Z,36.26
2018-09-24T02:31:27.163Z,36.35
2018-09-24T02:31:27.762Z,36.35
2018-09-24T02:31:28.362Z,36.64
2018-09-24T02:31:28.963Z,36.26
2018-09-24T02:31:29.563Z,36.26
2018-09-24T02:31:30.161Z,36.26
2018-09-24T02:31:30.761Z,36.35
2018-09-24T02:32:25.245Z,32.07
2018-09-24T02:32:25.836Z,32.07
2018-09-24T02:32:26.439Z,31.98
2018-09-24T02:32:27.036Z,32.07
2018-09-24T02:32:27.636Z,31.88
2018-09-24T02:32:28.234Z,31.88
2018-09-24T02:32:28.834Z,31.88
2018-09-24T02:32:29.434Z,31.98
2018-09-24T02:33:23.918Z,31.21
2018-09-24T02:33:24.514Z,31.02
2018-09-24T02:33:25.114Z,31.31
2018-09-24T02:33:25.733Z,31.21
2018-09-24T02:33:26.314Z,31.21
2018-09-24T02:33:26.916Z,31.31
2018-09-24T02:33:27.519Z,31.50
2018-09-24T02:33:28.115Z,31.50
2018-09-24T02:34:22.616Z,29.50
2018-09-24T02:34:23.189Z,29.50
2018-09-24T02:34:23.788Z,29.50
2018-09-24T02:34:24.388Z,29.41
2018-09-24T02:34:24.990Z,29.50
2018-09-24T02:34:25.590Z,29.22
2018-09-24T02:34:26.204Z,29.41
2018-09-24T02:34:26.794Z,29.31
2018-09-24T02:35:20.245Z,26.55
2018-09-24T02:35:20.841Z,26.65
2018-09-24T02:35:21.442Z,26.36
2018-09-24T02:35:22.043Z,26.26
2018-09-24T02:35:22.644Z,26.36
2018-09-24T02:35:23.245Z,26.46
2018-09-24T02:35:23.842Z,26.17
2018-09-24T02:35:24.440Z,26.17
2018-09-24T02:36:18.920Z,22.27
2018-09-24T02:36:19.518Z,22.08
2018-09-24T02:36:20.120Z,22.17
2018-09-24T02:36:20.716Z,22.08
2018-09-24T02:36:21.317Z,21.98
2018-09-24T02:36:21.917Z,22.27
2018-09-24T02:36:22.519Z,22.27
2018-09-24T02:36:23.117Z,22.17
2018-09-24T02:37:16.572Z,19.32
2018-09-24T02:37:17.168Z,19.42
2018-09-24T02:37:17.768Z,18.84
2018-09-24T02:37:18.368Z,19.42
2018-09-24T02:37:18.968Z,19.03
2018-09-24T02:37:19.569Z,18.84
2018-09-24T02:37:20.169Z,18.84
2018-09-24T02:37:20.767Z,19.03
2018-09-24T02:38:15.248Z,18.18
2018-09-24T02:38:15.845Z,18.27
2018-09-24T02:38:16.448Z,17.89
2018-09-24T02:38:17.044Z,18.08
2018-09-24T02:38:17.644Z,17.99
2018-09-24T02:38:18.244Z,17.89
2018-09-24T02:38:18.843Z,17.80
2018-09-24T02:38:19.443Z,18.27
2018-09-24T02:39:12.936Z,16.37
2018-09-24T02:39:13.497Z,16.27
2018-09-24T02:39:14.104Z,16.27
2018-09-24T02:39:14.696Z,16.27
2018-09-24T02:39:15.297Z,16.27
2018-09-24T02:39:15.897Z,16.27
2018-09-24T02:39:16.495Z,16.37
2018-09-24T02:39:17.096Z,16.27
2018-09-24T02:40:10.551Z,22.17
2018-09-24T02:40:11.150Z,22.65
2018-09-24T02:40:11.753Z,22.08
2018-09-24T02:40:12.354Z,22.84
2018-09-24T02:40:12.947Z,22.65
2018-09-24T02:40:13.552Z,22.65
2018-09-24T02:40:14.152Z,23.13
2018-09-24T02:40:14.746Z,23.13
2018-09-24T02:41:09.226Z,22.17
2018-09-24T02:41:09.823Z,22.74
2018-09-24T02:41:10.423Z,22.65
2018-09-24T02:41:11.022Z,22.65
2018-09-24T02:41:11.621Z,22.65
2018-09-24T02:41:12.224Z,22.74
2018-09-24T02:41:12.824Z,22.27
2018-09-24T02:41:13.421Z,22.74
2018-09-24T02:42:06.888Z,25.12
2018-09-24T02:42:07.477Z,25.03
2018-09-24T02:42:08.076Z,25.12
2018-09-24T02:42:08.676Z,25.12
2018-09-24T02:42:09.275Z,24.84
2018-09-24T02:42:09.874Z,24.84
2018-09-24T02:42:10.473Z,24.93
2018-09-24T02:42:11.074Z,24.93
2018-09-24T02:43:05.555Z,23.69
2018-09-24T02:43:06.150Z,23.69
2018-09-24T02:43:06.751Z,23.79
2018-09-24T02:43:07.351Z,23.60
2018-09-24T02:43:07.951Z,23.89
2018-09-24T02:43:08.553Z,23.89
2018-09-24T02:43:09.150Z,23.89
2018-09-24T02:43:09.752Z,23.60
2018-09-24T02:44:04.228Z,21.98
2018-09-24T02:44:04.827Z,22.08
2018-09-24T02:44:05.426Z,21.98
2018-09-24T02:44:06.026Z,21.98
2018-09-24T02:44:06.627Z,21.98
2018-09-24T02:44:07.228Z,22.08
2018-09-24T02:44:07.824Z,22.08
2018-09-24T02:44:08.426Z,21.79
2018-09-24T02:45:01.924Z,19.98
2018-09-24T02:45:02.478Z,19.98
2018-09-24T02:45:03.077Z,19.98
2018-09-24T02:45:03.677Z,19.89
2018-09-24T02:45:04.277Z,19.98
2018-09-24T02:45:04.880Z,19.89
2018-09-24T02:45:05.478Z,19.70
2018-09-24T02:45:06.077Z,19.89
2018-09-24T02:46:00.557Z,19.03
2018-09-24T02:46:01.156Z,19.32
2018-09-24T02:46:01.756Z,19.32
2018-09-24T02:46:02.354Z,19.51
2018-09-24T02:46:02.952Z,19.32
2018-09-24T02:46:03.554Z,19.51
2018-09-24T02:46:04.160Z,19.51
2018-09-24T02:46:04.753Z,19.51
2018-09-24T02:46:58.265Z,18.94
2018-09-24T02:46:58.806Z,18.84
2018-09-24T02:46:59.410Z,18.84
2018-09-24T02:47:00.005Z,18.84
2018-09-24T02:47:00.605Z,18.74
2018-09-24T02:47:01.206Z,18.74
2018-09-24T02:47:01.804Z,19.03
2018-09-24T02:47:02.405Z,19.03
2018-09-24T02:47:56.888Z,16.75
2018-09-24T02:47:57.480Z,16.85
2018-09-24T02:47:58.079Z,16.75
2018-09-24T02:47:58.680Z,16.85
2018-09-24T02:47:59.278Z,16.85
2018-09-24T02:47:59.880Z,16.75
2018-09-24T02:48:00.479Z,16.65
2018-09-24T02:48:01.078Z,17.03
2018-09-24T02:48:55.559Z,21.60
2018-09-24T02:48:56.160Z,21.51
2018-09-24T02:48:56.756Z,21.32
2018-09-24T02:48:57.355Z,21.41
2018-09-24T02:48:57.957Z,21.41
2018-09-24T02:48:58.558Z,21.32
2018-09-24T02:48:59.155Z,21.41
2018-09-24T02:48:59.754Z,21.70
2018-09-24T02:49:53.235Z,20.17
2018-09-24T02:49:53.827Z,20.17
2018-09-24T02:49:54.408Z,20.37
2018-09-24T02:49:55.012Z,19.89
2018-09-24T02:49:55.609Z,19.98
2018-09-24T02:49:56.209Z,19.79
2018-09-24T02:49:56.808Z,20.08
2018-09-24T02:49:57.408Z,19.98
2018-09-24T02:50:51.888Z,17.99
2018-09-24T02:50:52.483Z,17.99
2018-09-24T02:50:53.084Z,17.80
2018-09-24T02:50:53.683Z,17.89
2018-09-24T02:50:54.284Z,17.80
2018-09-24T02:50:54.884Z,17.51
2018-09-24T02:50:55.483Z,17.51
2018-09-24T02:50:56.082Z,17.51
2018-09-24T02:51:49.543Z,16.37
2018-09-24T02:51:50.138Z,16.27
2018-09-24T02:51:50.738Z,16.37
2018-09-24T02:51:51.335Z,16.27
2018-09-24T02:51:51.936Z,16.27
2018-09-24T02:51:52.536Z,16.27
2018-09-24T02:51:53.135Z,16.27
2018-09-24T02:51:53.735Z,16.37
2018-09-24T02:52:47.194Z,15.51
2018-09-24T02:52:47.788Z,15.80
2018-09-24T02:52:48.387Z,15.32
2018-09-24T02:52:48.990Z,15.23
2018-09-24T02:52:49.589Z,15.32
2018-09-24T02:52:50.189Z,15.32
2018-09-24T02:52:50.789Z,15.51
2018-09-24T02:52:51.395Z,15.42
2018-09-24T02:53:45.866Z,16.17
2018-09-24T02:53:46.462Z,16.37
2018-09-24T02:53:47.063Z,16.37
2018-09-24T02:53:47.662Z,16.56
2018-09-24T02:53:48.261Z,16.56
2018-09-24T02:53:48.864Z,16.27
2018-09-24T02:53:49.467Z,16.46
2018-09-24T02:53:50.060Z,16.37
2018-09-24T02:54:44.568Z,19.42
2018-09-24T02:54:45.139Z,19.51
2018-09-24T02:54:45.739Z,19.60
2018-09-24T02:54:46.340Z,19.51
2018-09-24T02:54:46.939Z,19.42
2018-09-24T02:54:47.545Z,19.42
2018-09-24T02:54:48.138Z,19.60
2018-09-24T02:54:48.738Z,19.60
2018-09-24T02:55:42.195Z,17.99
2018-09-24T02:55:42.790Z,18.08
2018-09-24T02:55:43.391Z,17.80
2018-09-24T02:55:43.999Z,17.99
2018-09-24T02:55:44.590Z,17.89
2018-09-24T02:55:45.191Z,18.08
2018-09-24T02:55:45.798Z,17.89
2018-09-24T02:55:46.390Z,17.89
2018-09-24T02:56:39.846Z,17.99
2018-09-24T02:56:40.447Z,17.89
2018-09-24T02:56:41.044Z,17.80
2018-09-24T02:56:41.643Z,17.89
2018-09-24T02:56:42.242Z,17.99
2018-09-24T02:56:42.843Z,17.99
2018-09-24T02:56:43.442Z,18.18
2018-09-24T02:56:44.041Z,17.89
2018-09-24T02:57:37.497Z,18.08
2018-09-24T02:57:38.096Z,18.08
2018-09-24T02:57:38.696Z,18.27
2018-09-24T02:57:39.294Z,18.18
2018-09-24T02:57:39.894Z,17.99
2018-09-24T02:57:40.496Z,17.99
2018-09-24T02:57:41.093Z,18.08
2018-09-24T02:57:41.693Z,18.18
2018-09-24T02:58:36.171Z,16.75
2018-09-24T02:58:36.789Z,16.46
2018-09-24T02:58:37.369Z,16.37
2018-09-24T02:58:37.970Z,16.37
2018-09-24T02:58:38.568Z,16.27
2018-09-24T02:58:39.168Z,16.37
2018-09-24T02:58:39.768Z,16.46
2018-09-24T02:58:40.369Z,16.46
2018-09-24T02:59:33.853Z,14.56
2018-09-24T02:59:34.423Z,14.47
2018-09-24T02:59:35.024Z,14.65
2018-09-24T02:59:35.620Z,14.47
2018-09-24T02:59:36.219Z,14.65
2018-09-24T02:59:36.820Z,14.65
2018-09-24T02:59:37.420Z,14.75
2018-09-24T02:59:38.020Z,14.65
2018-09-24T03:00:31.480Z,14.28
2018-09-24T03:00:32.072Z,14.75
2018-09-24T03:00:32.671Z,13.99
2018-09-24T03:00:33.272Z,14.65
2018-09-24T03:00:33.871Z,14.65
2018-09-24T03:00:34.471Z,14.65
2018-09-24T03:00:35.072Z,14.65
2018-09-24T03:00:35.671Z,14.65
2018-09-24T03:01:29.159Z,14.47
2018-09-24T03:01:29.773Z,14.65
2018-09-24T03:01:30.460Z,14.84
2018-09-24T03:01:30.926Z,14.37
2018-09-24T03:01:31.526Z,14.28
2018-09-24T03:01:32.125Z,14.18
2018-09-24T03:01:32.725Z,14.47
2018-09-24T03:01:33.325Z,14.28
2018-09-24T03:02:27.802Z,17.70
2018-09-24T03:02:28.400Z,17.70
2018-09-24T03:02:29.000Z,17.51
2018-09-24T03:02:29.599Z,17.80
2018-09-24T03:02:30.200Z,17.80
2018-09-24T03:02:30.801Z,17.60
2018-09-24T03:02:31.399Z,17.51
2018-09-24T03:02:31.998Z,17.70
2018-09-24T03:03:25.456Z,17.70
2018-09-24T03:03:26.053Z,17.89
2018-09-24T03:03:26.652Z,17.70
2018-09-24T03:03:27.257Z,17.60
2018-09-24T03:03:27.853Z,17.60
2018-09-24T03:03:28.453Z,17.80
2018-09-24T03:03:29.052Z,17.60
2018-09-24T03:03:29.650Z,17.60
2018-09-24T03:04:23.108Z,17.03
2018-09-24T03:04:23.705Z,17.03
2018-09-24T03:04:24.305Z,17.03
2018-09-24T03:04:24.905Z,16.85
2018-09-24T03:04:25.505Z,16.85
2018-09-24T03:04:26.104Z,16.75
2018-09-24T03:04:26.703Z,16.85
2018-09-24T03:04:27.305Z,16.85
2018-09-24T03:05:20.784Z,16.75
2018-09-24T03:05:21.355Z,16.94
2018-09-24T03:05:21.955Z,16.85
2018-09-24T03:05:22.559Z,16.94
2018-09-24T03:05:23.155Z,16.85